Riddlesburg, Pennsylvania
Current Conditions -  °F | °C
As of 3:53 AM on Wednesday 28 Jan 2015 (Local Time) from KAOO Reporting Station
Clear Clear  
Wind Chill: -4°   Ceiling: Unl
Heat Index: 12°   Visibility: 10mi
Dew Point:   Wind: 15mph
Humidity: 73%   Direction: 300°WNW
Pressure: 30.06"   Gusts: NA
Location:  40.16°N, 78.25°W
Report Text: KAOO 280853Z AUTO 30013KT 10SM CLR M11/M15 A3006 RMK AO2 SLP206 T11111150 51009
Loading
Personal Weather Stations






























Interactive Weather Map New forecast layout! Learn more

10-Day Weather Forecast

Advertisements
Track Severe Weather on mobile